createdAt,value
2017-12-21T00:00:03.819Z,30.07
2017-12-21T00:02:31.311Z,30.30
2017-12-21T00:04:58.812Z,28.97
2017-12-21T00:07:27.059Z,25.90
2017-12-21T00:09:54.570Z,25.97
2017-12-21T00:12:22.067Z,28.53
2017-12-21T00:14:49.569Z,24.53
2017-12-21T00:17:17.047Z,30.93
2017-12-21T00:19:44.556Z,31.10
2017-12-21T00:22:12.040Z,30.07
2017-12-21T00:24:39.523Z,28.50
2017-12-21T00:27:07.851Z,34.07
2017-12-21T00:29:35.348Z,35.93
2017-12-21T00:32:02.891Z,34.83
2017-12-21T00:34:30.372Z,34.20
2017-12-21T00:36:57.884Z,30.63
2017-12-21T00:39:26.135Z,29.30
2017-12-21T00:41:54.408Z,32.93
2017-12-21T00:44:21.948Z,28.83
2017-12-21T00:46:49.460Z,31.17
2017-12-21T00:49:16.943Z,31.67
2017-12-21T00:51:45.214Z,37.60
2017-12-21T00:54:12.711Z,28.13
2017-12-21T00:56:40.229Z,34.60
2017-12-21T00:59:07.720Z,34.30
2017-12-21T01:01:35.228Z,35.80
2017-12-21T01:04:02.726Z,35.77
2017-12-21T01:06:30.233Z,41.73
2017-12-21T01:08:57.720Z,35.07
2017-12-21T01:11:25.987Z,37.50
2017-12-21T01:13:53.477Z,30.60
2017-12-21T01:16:21.760Z,36.13
2017-12-21T01:18:50.032Z,36.70
2017-12-21T01:21:17.536Z,31.43
2017-12-21T01:23:45.790Z,34.60
2017-12-21T01:26:13.287Z,31.53
2017-12-21T01:28:41.565Z,36.27
2017-12-21T01:31:09.823Z,33.57
2017-12-21T01:33:37.327Z,38.20
2017-12-21T01:36:05.583Z,37.40
2017-12-21T01:38:33.094Z,32.60
2017-12-21T01:41:01.340Z,35.67
2017-12-21T01:43:28.849Z,35.43
2017-12-21T01:45:57.099Z,29.73
2017-12-21T01:48:24.605Z,34.23
2017-12-21T01:50:52.856Z,39.50
2017-12-21T01:53:20.355Z,35.43
2017-12-21T01:55:47.834Z,38.93
2017-12-21T01:58:16.112Z,31.33
2017-12-21T02:00:43.598Z,26.30
2017-12-21T02:03:11.867Z,29.53
2017-12-21T02:05:39.343Z,30.60
2017-12-21T02:08:07.628Z,32.03
2017-12-21T02:10:35.123Z,28.73
2017-12-21T02:13:02.636Z,32.53
2017-12-21T02:15:30.140Z,27.33
2017-12-21T02:17:57.655Z,26.30
2017-12-21T02:20:25.920Z,25.57
2017-12-21T02:22:53.437Z,28.03
2017-12-21T02:25:20.916Z,27.93
2017-12-21T02:27:48.402Z,27.43
2017-12-21T02:30:15.923Z,27.47
2017-12-21T02:32:43.429Z,27.80
2017-12-21T02:35:11.002Z,30.10
2017-12-21T02:37:38.585Z,21.47
2017-12-21T02:40:06.120Z,24.90
2017-12-21T02:42:33.616Z,26.50
2017-12-21T02:45:01.117Z,26.50
2017-12-21T02:47:29.384Z,28.37
2017-12-21T02:49:56.897Z,27.83
2017-12-21T02:52:24.385Z,27.13
2017-12-21T02:54:51.887Z,32.17
2017-12-21T02:57:19.488Z,28.10
2017-12-21T02:59:47.759Z,27.10
2017-12-21T03:02:15.240Z,27.27
2017-12-21T03:04:43.516Z,25.30
2017-12-21T03:07:11.012Z,32.97
2017-12-21T03:09:39.287Z,29.33
2017-12-21T03:12:07.557Z,27.00
2017-12-21T03:14:35.079Z,28.27
2017-12-21T03:17:02.581Z,23.80
2017-12-21T03:19:30.100Z,28.07
2017-12-21T03:21:57.592Z,28.57
2017-12-21T03:24:25.080Z,24.37
2017-12-21T03:26:52.627Z,26.83
2017-12-21T03:29:20.119Z,23.67
2017-12-21T03:31:47.861Z,26.37
2017-12-21T03:34:15.348Z,24.77
2017-12-21T03:36:42.851Z,21.23
2017-12-21T03:39:10.336Z,27.87
2017-12-21T03:41:37.842Z,27.67
2017-12-21T03:44:05.331Z,24.43
2017-12-21T03:46:32.844Z,26.60
2017-12-21T03:49:00.332Z,26.80
2017-12-21T03:51:27.831Z,24.80
2017-12-21T03:53:55.312Z,26.67
2017-12-21T03:56:22.812Z,30.80
2017-12-21T03:58:50.336Z,28.33
2017-12-21T04:01:17.853Z,26.10
2017-12-21T04:03:45.341Z,28.87
2017-12-21T04:06:12.849Z,25.03
2017-12-21T04:08:40.331Z,28.13
2017-12-21T04:11:07.835Z,29.27
2017-12-21T04:13:35.327Z,24.53
2017-12-21T04:16:02.847Z,27.97
2017-12-21T04:18:30.336Z,26.03
2017-12-21T04:20:57.844Z,27.63
2017-12-21T04:23:26.103Z,32.20
2017-12-21T04:25:53.626Z,27.43
2017-12-21T04:28:21.882Z,25.47
2017-12-21T04:30:49.416Z,28.27
2017-12-21T04:33:16.926Z,24.43
2017-12-21T04:35:44.415Z,26.60
2017-12-21T04:38:12.896Z,29.63
2017-12-21T04:40:40.387Z,24.40
2017-12-21T04:43:07.910Z,22.80
2017-12-21T04:45:35.400Z,28.20
2017-12-21T04:48:02.930Z,29.33
2017-12-21T04:50:30.503Z,30.43
2017-12-21T04:52:58.036Z,25.37
2017-12-21T04:55:26.288Z,26.77
2017-12-21T04:57:53.825Z,28.03
2017-12-21T05:00:21.468Z,27.70
2017-12-21T05:02:49.184Z,25.17
2017-12-21T05:05:16.791Z,26.77
2017-12-21T05:07:44.340Z,33.10
2017-12-21T05:10:11.840Z,30.87
2017-12-21T05:12:39.341Z,30.30
2017-12-21T05:15:06.838Z,26.03
2017-12-21T05:17:34.425Z,25.83
2017-12-21T05:20:01.934Z,28.97
2017-12-21T05:22:30.219Z,28.60
2017-12-21T05:24:57.728Z,28.40
2017-12-21T05:27:25.232Z,24.33
2017-12-21T05:29:52.739Z,24.50
2017-12-21T05:32:20.239Z,30.67
2017-12-21T05:34:47.755Z,27.07
2017-12-21T05:37:15.243Z,28.30
2017-12-21T05:39:42.772Z,31.07
2017-12-21T05:42:10.276Z,27.93
2017-12-21T05:44:37.795Z,33.40
2017-12-21T05:47:05.297Z,26.67
2017-12-21T05:49:32.808Z,25.40
2017-12-21T05:52:01.059Z,32.63
2017-12-21T05:54:28.569Z,28.77
2017-12-21T05:56:56.055Z,30.27
2017-12-21T05:59:23.574Z,29.40
2017-12-21T06:01:51.056Z,28.83
2017-12-21T06:04:18.564Z,32.67
2017-12-21T06:06:46.075Z,27.67
2017-12-21T06:09:13.591Z,27.57
2017-12-21T06:11:41.087Z,29.07
2017-12-21T06:14:08.592Z,26.63
2017-12-21T06:16:36.084Z,24.40
2017-12-21T06:19:04.376Z,28.00
2017-12-21T06:21:32.640Z,25.10
2017-12-21T06:24:00.135Z,31.27
2017-12-21T06:26:28.421Z,26.63
2017-12-21T06:28:56.689Z,33.57
2017-12-21T06:31:24.209Z,48.50
2017-12-21T06:33:51.697Z,32.57
2017-12-21T06:36:19.216Z,46.50
2017-12-21T06:38:46.703Z,32.87
2017-12-21T06:41:14.971Z,38.03
2017-12-21T06:43:42.460Z,30.53
2017-12-21T06:46:10.740Z,30.00
2017-12-21T06:48:39.003Z,26.10
2017-12-21T06:51:06.507Z,36.37
2017-12-21T06:53:34.811Z,28.57
2017-12-21T06:56:02.296Z,31.67
2017-12-21T06:58:29.798Z,31.87
2017-12-21T07:00:57.309Z,29.93
2017-12-21T07:03:24.812Z,31.47
2017-12-21T07:05:52.345Z,28.10
2017-12-21T07:08:20.591Z,28.20
2017-12-21T07:10:48.100Z,30.90
2017-12-21T07:13:16.356Z,29.73
2017-12-21T07:15:43.872Z,31.77
2017-12-21T07:18:11.367Z,32.70
2017-12-21T07:20:38.878Z,32.87
2017-12-21T07:23:06.384Z,33.40
2017-12-21T07:25:33.907Z,31.30
2017-12-21T07:28:01.399Z,31.83
2017-12-21T07:30:28.891Z,31.17
2017-12-21T07:32:56.412Z,34.67
2017-12-21T07:35:23.904Z,37.50
2017-12-21T07:37:51.420Z,54.17
2017-12-21T07:40:18.927Z,37.20
2017-12-21T07:42:46.443Z,34.60
2017-12-21T07:45:13.931Z,26.90
2017-12-21T07:47:41.432Z,48.13
2017-12-21T07:50:08.916Z,28.27
2017-12-21T07:52:36.415Z,32.70
2017-12-21T07:55:04.665Z,31.90
2017-12-21T07:57:32.199Z,26.97
2017-12-21T07:59:59.728Z,28.97
2017-12-21T08:02:27.229Z,30.60
2017-12-21T08:04:54.713Z,27.60
2017-12-21T08:07:22.234Z,27.77
2017-12-21T08:09:49.728Z,28.00
2017-12-21T08:12:18.006Z,27.47
2017-12-21T08:14:46.265Z,23.10
2017-12-21T08:17:13.787Z,26.43
2017-12-21T08:19:41.279Z,25.77
2017-12-21T08:22:08.764Z,27.30
2017-12-21T08:24:36.272Z,26.93
2017-12-21T08:27:04.527Z,22.73
2017-12-21T08:29:32.040Z,30.90
2017-12-21T08:32:00.305Z,24.10
2017-12-21T08:34:27.819Z,26.30
2017-12-21T08:36:55.303Z,28.10
2017-12-21T08:39:22.816Z,27.30
2017-12-21T08:41:50.311Z,41.93
2017-12-21T08:44:18.605Z,33.37
2017-12-21T08:46:46.923Z,35.17
2017-12-21T08:49:14.430Z,29.23
2017-12-21T08:51:41.915Z,31.10
2017-12-21T08:54:09.424Z,25.23
2017-12-21T08:56:36.924Z,31.50
2017-12-21T08:59:04.428Z,30.83
2017-12-21T09:01:31.911Z,28.80
2017-12-21T09:04:00.176Z,32.00
2017-12-21T09:06:27.674Z,31.03
2017-12-21T09:08:55.191Z,30.47
2017-12-21T09:11:22.685Z,27.43
2017-12-21T09:13:50.613Z,31.30
2017-12-21T09:16:18.115Z,37.33
2017-12-21T09:18:45.627Z,38.50
2017-12-21T09:21:13.900Z,35.80
2017-12-21T09:23:41.389Z,34.77
2017-12-21T09:26:09.662Z,32.97
2017-12-21T09:28:37.147Z,32.10
2017-12-21T09:31:05.421Z,38.30
2017-12-21T09:33:32.921Z,34.93
2017-12-21T09:36:00.435Z,34.60
2017-12-21T09:38:27.919Z,37.00
2017-12-21T09:40:55.426Z,36.30
2017-12-21T09:43:23.679Z,34.43
2017-12-21T09:45:51.188Z,33.07
2017-12-21T09:48:18.676Z,33.00
2017-12-21T09:50:46.175Z,29.67
2017-12-21T09:53:13.660Z,31.97
2017-12-21T09:55:41.163Z,37.53
2017-12-21T09:58:09.411Z,71.60
2017-12-21T10:00:36.920Z,86.10
2017-12-21T10:03:05.176Z,48.63
2017-12-21T10:05:32.692Z,35.30
2017-12-21T10:08:00.175Z,38.53
2017-12-21T10:10:27.679Z,33.57
2017-12-21T10:12:55.163Z,37.23
2017-12-21T10:15:22.689Z,33.73
2017-12-21T10:17:50.185Z,30.57
2017-12-21T10:20:17.667Z,34.30
2017-12-21T10:22:45.180Z,32.33
2017-12-21T10:25:12.706Z,37.90
2017-12-21T10:27:40.214Z,33.03
2017-12-21T10:30:08.468Z,29.40
2017-12-21T10:32:35.983Z,33.10
2017-12-21T10:35:03.472Z,30.60
2017-12-21T10:37:30.981Z,32.07
2017-12-21T10:39:58.479Z,28.13
2017-12-21T10:42:26.743Z,30.37
2017-12-21T10:44:54.222Z,28.97
2017-12-21T10:47:21.727Z,29.07
2017-12-21T10:49:49.207Z,32.90
2017-12-21T10:52:16.734Z,36.70
2017-12-21T10:54:44.996Z,45.57
2017-12-21T10:57:12.508Z,45.33
2017-12-21T10:59:40.764Z,51.43
2017-12-21T11:02:08.272Z,39.60
2017-12-21T11:04:36.523Z,31.93
2017-12-21T11:07:04.024Z,32.23
2017-12-21T11:09:32.276Z,32.77
2017-12-21T11:11:59.783Z,29.67
2017-12-21T11:14:28.036Z,27.07
2017-12-21T11:16:55.539Z,26.13
2017-12-21T11:19:23.804Z,26.97
2017-12-21T11:21:51.292Z,28.63
2017-12-21T11:24:19.572Z,32.63
2017-12-21T11:26:47.056Z,28.67
2017-12-21T11:29:15.332Z,27.67
2017-12-21T11:31:42.815Z,29.60
2017-12-21T11:34:11.089Z,35.33
2017-12-21T11:36:38.575Z,34.80
2017-12-21T11:39:06.848Z,32.40
2017-12-21T11:41:34.340Z,33.63
2017-12-21T11:44:02.616Z,34.47
2017-12-21T11:46:30.868Z,32.60
2017-12-21T11:48:58.375Z,32.97
2017-12-21T11:51:26.623Z,33.10
2017-12-21T11:53:54.140Z,32.23
2017-12-21T11:56:22.389Z,31.10
2017-12-21T11:58:49.887Z,25.70
2017-12-21T12:01:18.152Z,32.77
2017-12-21T12:03:45.651Z,29.40
2017-12-21T12:06:13.927Z,28.07
2017-12-21T12:08:41.428Z,27.07
2017-12-21T12:11:08.911Z,28.00
2017-12-21T12:13:36.436Z,24.80
2017-12-21T12:16:03.931Z,27.47
2017-12-21T12:18:31.435Z,23.87
2017-12-21T12:20:58.924Z,25.53
2017-12-21T12:23:26.400Z,24.67
2017-12-21T12:25:53.906Z,22.37
2017-12-21T12:28:21.428Z,24.20
2017-12-21T12:30:48.947Z,24.87
2017-12-21T12:33:17.208Z,22.10
2017-12-21T12:35:44.729Z,24.10
2017-12-21T12:38:12.252Z,25.60
2017-12-21T12:40:39.767Z,23.80
2017-12-21T12:43:07.247Z,22.23
2017-12-21T12:45:34.756Z,23.10
2017-12-21T12:48:02.259Z,20.80
2017-12-21T12:50:30.535Z,21.87
2017-12-21T12:52:58.784Z,22.00
2017-12-21T12:55:26.284Z,24.20
2017-12-21T12:57:54.547Z,22.00
2017-12-21T13:00:22.047Z,22.17
2017-12-21T13:02:49.545Z,22.23
2017-12-21T13:05:17.057Z,23.37
2017-12-21T13:07:44.544Z,26.20
2017-12-21T13:10:12.053Z,24.73
2017-12-21T13:12:39.548Z,20.03
2017-12-21T13:15:07.050Z,22.20
2017-12-21T13:17:34.535Z,26.83
2017-12-21T13:20:02.020Z,23.93
2017-12-21T13:22:30.292Z,25.80
2017-12-21T13:24:57.772Z,23.83
2017-12-21T13:27:26.052Z,27.97
2017-12-21T13:29:53.543Z,25.67
2017-12-21T13:32:21.809Z,25.73
2017-12-21T13:34:49.299Z,26.23
2017-12-21T13:37:17.568Z,25.57
2017-12-21T13:39:45.048Z,28.27
2017-12-21T13:42:13.315Z,27.80
2017-12-21T13:44:40.803Z,26.10
2017-12-21T13:47:09.079Z,29.77
2017-12-21T13:49:36.567Z,30.87
2017-12-21T13:52:04.838Z,28.97
2017-12-21T13:54:32.336Z,32.20
2017-12-21T13:57:00.596Z,26.33
2017-12-21T13:59:28.083Z,25.00
2017-12-21T14:01:56.356Z,26.23
2017-12-21T14:04:23.835Z,29.50
2017-12-21T14:06:52.472Z,30.47
2017-12-21T14:09:19.951Z,34.30
2017-12-21T14:11:47.455Z,29.50
2017-12-21T14:14:14.944Z,31.53
2017-12-21T14:16:43.223Z,32.17
2017-12-21T14:19:10.712Z,30.77
2017-12-21T14:21:38.964Z,24.93
2017-12-21T14:24:06.461Z,30.10
2017-12-21T14:26:34.719Z,27.00
2017-12-21T14:29:02.232Z,25.83
2017-12-21T14:31:30.487Z,32.13
2017-12-21T14:33:58.002Z,35.47
2017-12-21T14:36:25.605Z,29.20
2017-12-21T14:38:53.108Z,27.10
2017-12-21T14:41:20.592Z,31.93
2017-12-21T14:43:48.862Z,28.47
2017-12-21T14:46:16.352Z,28.17
2017-12-21T14:48:44.620Z,32.30
2017-12-21T14:51:12.101Z,34.53
2017-12-21T14:53:39.608Z,27.87
2017-12-21T14:56:07.099Z,33.90
2017-12-21T14:58:34.608Z,38.97
2017-12-21T15:01:02.456Z,34.10
2017-12-21T15:03:29.960Z,31.10
2017-12-21T15:05:57.447Z,30.47
2017-12-21T15:08:25.719Z,29.27
2017-12-21T15:10:53.203Z,32.63
2017-12-21T15:13:21.468Z,30.83
2017-12-21T15:15:48.956Z,28.93
2017-12-21T15:18:17.239Z,32.97
2017-12-21T15:20:44.730Z,34.70
2017-12-21T15:23:12.225Z,31.53
2017-12-21T15:25:39.737Z,30.60
2017-12-21T15:28:07.226Z,31.43
2017-12-21T15:30:35.500Z,32.33
2017-12-21T15:33:02.987Z,31.10
2017-12-21T15:35:31.260Z,27.43
2017-12-21T15:37:58.752Z,31.67
2017-12-21T15:40:26.265Z,29.47
2017-12-21T15:42:53.756Z,39.87
2017-12-21T15:45:21.263Z,30.20
2017-12-21T15:47:49.508Z,31.80
2017-12-21T15:50:17.017Z,33.90
2017-12-21T15:52:45.268Z,25.60
2017-12-21T15:55:12.775Z,27.73
2017-12-21T15:57:41.024Z,32.07
2017-12-21T16:00:08.523Z,28.93
2017-12-21T16:02:36.008Z,26.40
2017-12-21T16:05:03.530Z,26.97
2017-12-21T16:07:31.060Z,33.20
2017-12-21T16:09:58.568Z,28.43
2017-12-21T16:12:26.057Z,25.40
2017-12-21T16:14:53.559Z,23.20
2017-12-21T16:17:21.812Z,28.50
2017-12-21T16:19:49.431Z,31.00
2017-12-21T16:22:16.915Z,24.50
2017-12-21T16:24:44.416Z,30.37
2017-12-21T16:27:11.928Z,28.63
2017-12-21T16:29:40.179Z,26.30
2017-12-21T16:32:07.704Z,30.53
2017-12-21T16:34:35.200Z,26.60
2017-12-21T16:37:02.704Z,28.47
2017-12-21T16:39:30.187Z,27.70
2017-12-21T16:41:57.688Z,25.93
2017-12-21T16:44:25.178Z,33.60
2017-12-21T16:46:52.691Z,34.50
2017-12-21T16:49:20.176Z,31.10
2017-12-21T16:51:48.452Z,33.33
2017-12-21T16:54:15.931Z,31.67
2017-12-21T16:56:44.200Z,30.07
2017-12-21T16:59:11.691Z,33.63
2017-12-21T17:01:39.963Z,31.70
2017-12-21T17:04:07.466Z,30.53
2017-12-21T17:06:34.987Z,33.07
2017-12-21T17:09:02.470Z,32.60
2017-12-21T17:11:29.984Z,34.93
2017-12-21T17:13:57.471Z,33.57
2017-12-21T17:16:24.980Z,36.57
2017-12-21T17:18:52.459Z,28.47
2017-12-21T17:21:19.965Z,34.77
2017-12-21T17:23:47.452Z,28.67
2017-12-21T17:26:15.727Z,28.23
2017-12-21T17:28:43.216Z,29.57
2017-12-21T17:31:10.705Z,28.20
2017-12-21T17:33:38.203Z,27.20
2017-12-21T17:36:05.687Z,28.60
2017-12-21T17:38:33.957Z,31.47
2017-12-21T17:41:01.801Z,30.47
2017-12-21T17:43:29.305Z,31.53
2017-12-21T17:45:56.796Z,32.33
2017-12-21T17:48:25.064Z,28.53
2017-12-21T17:50:52.566Z,31.90
2017-12-21T17:53:20.076Z,35.30
2017-12-21T17:55:47.572Z,28.90
2017-12-21T17:58:15.097Z,29.03
2017-12-21T18:00:42.584Z,29.93
2017-12-21T18:03:10.096Z,32.37
2017-12-21T18:05:38.356Z,31.20
2017-12-21T18:08:05.858Z,33.73
2017-12-21T18:10:34.103Z,35.07
2017-12-21T18:13:01.611Z,35.57
2017-12-21T18:15:29.863Z,32.93
2017-12-21T18:17:57.372Z,33.43
2017-12-21T18:20:25.627Z,28.50
2017-12-21T18:22:53.151Z,34.27
2017-12-21T18:25:20.631Z,34.63
2017-12-21T18:27:48.132Z,32.10
2017-12-21T18:30:15.641Z,29.53
2017-12-21T18:32:43.893Z,40.47
2017-12-21T18:35:11.400Z,46.80
2017-12-21T18:37:39.655Z,35.80
2017-12-21T18:40:07.198Z,35.97
2017-12-21T18:42:34.679Z,36.10
2017-12-21T18:45:03.667Z,34.57
2017-12-21T18:47:31.143Z,32.00
2017-12-21T18:49:58.652Z,36.80
2017-12-21T18:52:26.147Z,34.67
2017-12-21T18:54:54.415Z,32.53
2017-12-21T18:57:21.920Z,34.40
2017-12-21T18:59:49.439Z,38.10
2017-12-21T19:02:16.927Z,33.83
2017-12-21T19:04:44.428Z,28.87
2017-12-21T19:07:12.679Z,29.03
2017-12-21T19:09:40.175Z,29.27
2017-12-21T19:12:08.419Z,30.20
2017-12-21T19:14:35.929Z,27.90
2017-12-21T19:17:03.431Z,28.13
2017-12-21T19:19:30.928Z,28.80
2017-12-21T19:21:58.413Z,33.47
2017-12-21T19:24:25.931Z,30.90
2017-12-21T19:26:53.419Z,29.90
2017-12-21T19:29:20.910Z,35.73
2017-12-21T19:31:48.421Z,28.67
2017-12-21T19:34:16.672Z,30.30
2017-12-21T19:36:44.193Z,30.20
2017-12-21T19:39:12.444Z,26.17
2017-12-21T19:41:39.948Z,28.90
2017-12-21T19:44:07.456Z,26.80
2017-12-21T19:46:34.964Z,34.17
2017-12-21T19:49:02.452Z,32.10
2017-12-21T19:51:29.979Z,30.00
2017-12-21T19:53:57.459Z,24.80
2017-12-21T19:56:24.968Z,27.97
2017-12-21T19:58:53.234Z,29.60
2017-12-21T20:01:20.739Z,23.10
2017-12-21T20:03:48.239Z,26.97
2017-12-21T20:06:15.762Z,26.73
2017-12-21T20:08:44.020Z,26.77
2017-12-21T20:11:11.544Z,27.50
2017-12-21T20:13:39.044Z,25.77
2017-12-21T20:16:06.577Z,27.40
2017-12-21T20:18:34.067Z,28.37
2017-12-21T20:21:01.553Z,26.57
2017-12-21T20:23:29.059Z,24.00
2017-12-21T20:25:56.541Z,27.70
2017-12-21T20:28:24.039Z,25.57
2017-12-21T20:30:51.531Z,22.27
2017-12-21T20:33:19.036Z,26.13
2017-12-21T20:35:46.524Z,25.73
2017-12-21T20:38:14.796Z,26.53
2017-12-21T20:40:42.279Z,28.07
2017-12-21T20:43:10.567Z,25.73
2017-12-21T20:45:38.813Z,23.70
2017-12-21T20:48:06.317Z,23.23
2017-12-21T20:50:33.802Z,22.07
2017-12-21T20:53:02.067Z,21.70
2017-12-21T20:55:29.551Z,25.53
2017-12-21T20:57:57.816Z,25.90
2017-12-21T21:00:25.351Z,25.47
2017-12-21T21:02:52.863Z,25.50
2017-12-21T21:05:20.343Z,24.53
2017-12-21T21:07:47.857Z,26.13
2017-12-21T21:10:15.347Z,27.67
2017-12-21T21:12:42.848Z,26.87
2017-12-21T21:15:10.336Z,27.50
2017-12-21T21:17:38.627Z,24.67
2017-12-21T21:20:06.878Z,23.43
2017-12-21T21:22:34.368Z,25.33
2017-12-21T21:25:01.878Z,29.13
2017-12-21T21:27:29.364Z,26.77
2017-12-21T21:29:56.874Z,27.60
2017-12-21T21:32:24.359Z,27.63
2017-12-21T21:34:52.640Z,28.53
2017-12-21T21:37:20.128Z,27.27
2017-12-21T21:39:48.399Z,31.23
2017-12-21T21:42:15.885Z,26.70
2017-12-21T21:44:44.148Z,26.87
2017-12-21T21:47:11.641Z,26.33
2017-12-21T21:49:39.904Z,26.37
2017-12-21T21:52:07.393Z,28.53
2017-12-21T21:54:35.661Z,35.70
2017-12-21T21:57:03.152Z,32.60
2017-12-21T21:59:31.447Z,30.57
2017-12-21T22:01:59.697Z,26.00
2017-12-21T22:04:27.204Z,31.67
2017-12-21T22:06:55.456Z,28.77
2017-12-21T22:09:22.960Z,32.83
2017-12-21T22:11:51.216Z,32.40
2017-12-21T22:14:18.715Z,26.90
2017-12-21T22:16:46.960Z,30.43
2017-12-21T22:19:14.445Z,27.00
2017-12-21T22:21:41.944Z,36.57
2017-12-21T22:24:10.192Z,30.60
2017-12-21T22:26:37.699Z,33.73
2017-12-21T22:29:05.175Z,34.30
2017-12-21T22:31:33.445Z,29.83
2017-12-21T22:34:00.937Z,32.30
2017-12-21T22:36:29.203Z,29.30
2017-12-21T22:38:56.760Z,31.97
2017-12-21T22:41:24.217Z,33.00
2017-12-21T22:43:51.708Z,31.97
2017-12-21T22:46:19.207Z,37.93
2017-12-21T22:48:47.453Z,31.27
2017-12-21T22:51:14.951Z,35.77
2017-12-21T22:53:42.436Z,34.83
2017-12-21T22:56:10.706Z,30.20
2017-12-21T22:58:38.188Z,29.03
2017-12-21T23:01:06.447Z,32.23
2017-12-21T23:03:33.936Z,33.43
2017-12-21T23:06:01.440Z,29.83
2017-12-21T23:08:28.969Z,32.80
2017-12-21T23:10:56.435Z,28.80
2017-12-21T23:13:23.916Z,31.97
2017-12-21T23:15:51.415Z,35.13
2017-12-21T23:18:18.896Z,31.77
2017-12-21T23:20:46.388Z,37.33
2017-12-21T23:23:13.871Z,30.13
2017-12-21T23:25:41.359Z,45.60
2017-12-21T23:28:08.856Z,32.60
2017-12-21T23:30:37.115Z,30.60
2017-12-21T23:33:04.629Z,32.60
2017-12-21T23:35:32.116Z,38.13
2017-12-21T23:37:59.621Z,39.73
2017-12-21T23:40:27.107Z,34.17
2017-12-21T23:42:55.380Z,35.00
2017-12-21T23:45:22.869Z,36.63
2017-12-21T23:47:51.131Z,35.47
2017-12-21T23:50:18.616Z,36.07
2017-12-21T23:52:46.124Z,42.90
2017-12-21T23:55:13.651Z,39.50
2017-12-21T23:57:41.152Z,36.40
